sensor_id;sensor_type;location;lat;lon;timestamp;P1;durP1;ratioP1;P2;durP2;ratioP2
3563;SDS011;1796;52.388;13.096;2023-12-04T00:01:13;16.90;;;8.80;;
3563;SDS011;1796;52.388;13.096;2023-12-04T00:03:40;23.70;;;8.80;;
3563;SDS011;1796;52.388;13.096;2023-12-04T00:06:09;16.03;;;8.37;;
3563;SDS011;1796;52.388;13.096;2023-12-04T00:08:37;19.57;;;9.03;;
3563;SDS011;1796;52.388;13.096;2023-12-04T00:11:04;26.03;;;10.33;;
3563;SDS011;1796;52.388;13.096;2023-12-04T00:13:32;33.93;;;9.67;;
3563;SDS011;1796;52.388;13.096;2023-12-04T00:15:59;26.07;;;9.47;;
3563;SDS011;1796;52.388;13.096;2023-12-04T00:18:26;24.80;;;9.93;;
3563;SDS011;1796;52.388;13.096;2023-12-04T00:20:53;16.70;;;8.20;;
3563;SDS011;1796;52.388;13.096;2023-12-04T00:23:21;16.53;;;8.93;;
3563;SDS011;1796;52.388;13.096;2023-12-04T00:25:48;21.80;;;9.80;;
3563;SDS011;1796;52.388;13.096;2023-12-04T00:28:15;16.17;;;8.30;;
3563;SDS011;1796;52.388;13.096;2023-12-04T00:30:42;17.57;;;8.33;;
3563;SDS011;1796;52.388;13.096;2023-12-04T00:33:09;24.20;;;10.20;;
3563;SDS011;1796;52.388;13.096;2023-12-04T00:35:36;14.90;;;8.13;;
3563;SDS011;1796;52.388;13.096;2023-12-04T00:38:02;16.50;;;9.33;;
3563;SDS011;1796;52.388;13.096;2023-12-04T00:40:31;16.07;;;8.03;;
3563;SDS011;1796;52.388;13.096;2023-12-04T00:42:57;19.03;;;8.70;;
3563;SDS011;1796;52.388;13.096;2023-12-04T00:45:24;19.57;;;8.83;;
3563;SDS011;1796;52.388;13.096;2023-12-04T00:47:51;19.63;;;9.17;;
3563;SDS011;1796;52.388;13.096;2023-12-04T00:50:18;22.63;;;9.13;;
3563;SDS011;1796;52.388;13.096;2023-12-04T00:52:45;19.67;;;8.93;;
3563;SDS011;1796;52.388;13.096;2023-12-04T00:55:12;18.50;;;9.97;;
3563;SDS011;1796;52.388;13.096;2023-12-04T00:57:40;20.13;;;10.10;;
3563;SDS011;1796;52.388;13.096;2023-12-04T01:00:07;15.70;;;9.07;;
3563;SDS011;1796;52.388;13.096;2023-12-04T01:02:35;20.53;;;10.27;;
3563;SDS011;1796;52.388;13.096;2023-12-04T01:05:02;19.10;;;8.87;;
3563;SDS011;1796;52.388;13.096;2023-12-04T01:07:29;23.50;;;10.70;;
3563;SDS011;1796;52.388;13.096;2023-12-04T01:09:56;23.60;;;8.90;;
3563;SDS011;1796;52.388;13.096;2023-12-04T01:12:23;28.27;;;10.97;;
3563;SDS011;1796;52.388;13.096;2023-12-04T01:14:51;26.30;;;10.80;;
3563;SDS011;1796;52.388;13.096;2023-12-04T01:17:18;24.93;;;10.57;;
3563;SDS011;1796;52.388;13.096;2023-12-04T01:19:45;20.97;;;10.47;;
3563;SDS011;1796;52.388;13.096;2023-12-04T01:22:12;21.20;;;9.80;;
3563;SDS011;1796;52.388;13.096;2023-12-04T01:24:39;20.07;;;9.93;;
3563;SDS011;1796;52.388;13.096;2023-12-04T01:27:06;19.10;;;10.13;;
3563;SDS011;1796;52.388;13.096;2023-12-04T01:29:33;22.10;;;10.17;;
3563;SDS011;1796;52.388;13.096;2023-12-04T01:32:01;17.40;;;9.53;;
3563;SDS011;1796;52.388;13.096;2023-12-04T01:34:28;21.60;;;9.40;;
3563;SDS011;1796;52.388;13.096;2023-12-04T01:36:55;23.10;;;9.90;;
3563;SDS011;1796;52.388;13.096;2023-12-04T01:39:22;17.17;;;8.47;;
3563;SDS011;1796;52.388;13.096;2023-12-04T01:41:49;16.87;;;9.43;;
3563;SDS011;1796;52.388;13.096;2023-12-04T01:44:15;18.10;;;10.80;;
3563;SDS011;1796;52.388;13.096;2023-12-04T01:46:43;20.83;;;10.27;;
3563;SDS011;1796;52.388;13.096;2023-12-04T01:49:11;20.80;;;9.93;;
3563;SDS011;1796;52.388;13.096;2023-12-04T01:51:38;18.60;;;9.70;;
3563;SDS011;1796;52.388;13.096;2023-12-04T01:54:06;21.70;;;10.00;;
3563;SDS011;1796;52.388;13.096;2023-12-04T01:56:33;23.13;;;10.40;;
3563;SDS011;1796;52.388;13.096;2023-12-04T01:59:02;25.20;;;10.90;;
3563;SDS011;1796;52.388;13.096;2023-12-04T02:01:29;19.73;;;9.67;;
3563;SDS011;1796;52.388;13.096;2023-12-04T02:03:57;18.63;;;10.07;;
3563;SDS011;1796;52.388;13.096;2023-12-04T02:06:27;18.33;;;9.27;;
3563;SDS011;1796;52.388;13.096;2023-12-04T02:08:54;19.00;;;9.47;;
3563;SDS011;1796;52.388;13.096;2023-12-04T02:11:23;21.40;;;10.00;;
3563;SDS011;1796;52.388;13.096;2023-12-04T02:13:50;23.17;;;10.73;;
3563;SDS011;1796;52.388;13.096;2023-12-04T02:16:17;24.23;;;11.07;;
3563;SDS011;1796;52.388;13.096;2023-12-04T02:18:45;23.63;;;10.50;;
3563;SDS011;1796;52.388;13.096;2023-12-04T02:21:13;29.97;;;12.53;;
3563;SDS011;1796;52.388;13.096;2023-12-04T02:23:41;21.93;;;11.33;;
3563;SDS011;1796;52.388;13.096;2023-12-04T02:26:10;23.33;;;11.57;;
3563;SDS011;1796;52.388;13.096;2023-12-04T02:28:42;17.93;;;9.03;;
3563;SDS011;1796;52.388;13.096;2023-12-04T02:31:16;22.10;;;11.07;;
3563;SDS011;1796;52.388;13.096;2023-12-04T02:33:45;22.07;;;11.13;;
3563;SDS011;1796;52.388;13.096;2023-12-04T02:36:14;26.47;;;11.50;;
3563;SDS011;1796;52.388;13.096;2023-12-04T02:38:41;24.40;;;11.17;;
3563;SDS011;1796;52.388;13.096;2023-12-04T02:41:10;25.83;;;10.13;;
3563;SDS011;1796;52.388;13.096;2023-12-04T02:43:37;22.80;;;10.30;;
3563;SDS011;1796;52.388;13.096;2023-12-04T02:46:04;23.73;;;10.50;;
3563;SDS011;1796;52.388;13.096;2023-12-04T02:48:31;24.00;;;11.10;;
3563;SDS011;1796;52.388;13.096;2023-12-04T02:50:58;18.57;;;10.70;;
3563;SDS011;1796;52.388;13.096;2023-12-04T02:53:25;23.67;;;10.07;;
3563;SDS011;1796;52.388;13.096;2023-12-04T02:55:52;26.17;;;12.17;;
3563;SDS011;1796;52.388;13.096;2023-12-04T02:58:20;17.17;;;9.77;;
3563;SDS011;1796;52.388;13.096;2023-12-04T03:00:47;19.27;;;10.40;;
3563;SDS011;1796;52.388;13.096;2023-12-04T03:03:14;27.90;;;11.20;;
3563;SDS011;1796;52.388;13.096;2023-12-04T03:05:41;23.93;;;10.63;;
3563;SDS011;1796;52.388;13.096;2023-12-04T03:08:08;17.60;;;9.57;;
3563;SDS011;1796;52.388;13.096;2023-12-04T03:10:34;18.03;;;10.40;;
3563;SDS011;1796;52.388;13.096;2023-12-04T03:13:01;21.77;;;9.50;;
3563;SDS011;1796;52.388;13.096;2023-12-04T03:15:30;24.87;;;10.80;;
3563;SDS011;1796;52.388;13.096;2023-12-04T03:17:58;24.60;;;10.63;;
3563;SDS011;1796;52.388;13.096;2023-12-04T03:20:25;17.37;;;9.37;;
3563;SDS011;1796;52.388;13.096;2023-12-04T03:22:52;18.40;;;9.97;;
3563;SDS011;1796;52.388;13.096;2023-12-04T03:25:19;30.17;;;12.40;;
3563;SDS011;1796;52.388;13.096;2023-12-04T03:27:46;20.13;;;10.90;;
3563;SDS011;1796;52.388;13.096;2023-12-04T03:30:13;25.93;;;11.83;;
3563;SDS011;1796;52.388;13.096;2023-12-04T03:32:41;26.77;;;11.50;;
3563;SDS011;1796;52.388;13.096;2023-12-04T03:35:08;20.40;;;10.43;;
3563;SDS011;1796;52.388;13.096;2023-12-04T03:37:36;27.60;;;11.77;;
3563;SDS011;1796;52.388;13.096;2023-12-04T03:40:03;21.00;;;10.37;;
3563;SDS011;1796;52.388;13.096;2023-12-04T03:42:31;23.07;;;11.93;;
3563;SDS011;1796;52.388;13.096;2023-12-04T03:44:57;21.40;;;10.90;;
3563;SDS011;1796;52.388;13.096;2023-12-04T03:47:24;21.97;;;10.73;;
3563;SDS011;1796;52.388;13.096;2023-12-04T03:49:53;17.43;;;9.73;;
3563;SDS011;1796;52.388;13.096;2023-12-04T03:52:20;26.10;;;10.63;;
3563;SDS011;1796;52.388;13.096;2023-12-04T03:54:46;23.70;;;12.00;;
3563;SDS011;1796;52.388;13.096;2023-12-04T03:57:13;21.40;;;10.40;;
3563;SDS011;1796;52.388;13.096;2023-12-04T03:59:40;22.30;;;11.07;;
3563;SDS011;1796;52.388;13.096;2023-12-04T04:02:07;25.67;;;10.17;;
3563;SDS011;1796;52.388;13.096;2023-12-04T04:04:34;24.73;;;12.30;;
3563;SDS011;1796;52.388;13.096;2023-12-04T04:07:02;24.20;;;11.07;;
3563;SDS011;1796;52.388;13.096;2023-12-04T04:09:29;31.57;;;12.27;;
3563;SDS011;1796;52.388;13.096;2023-12-04T04:11:56;34.50;;;12.67;;
3563;SDS011;1796;52.388;13.096;2023-12-04T04:14:23;22.67;;;11.23;;
3563;SDS011;1796;52.388;13.096;2023-12-04T04:16:49;25.70;;;12.37;;
3563;SDS011;1796;52.388;13.096;2023-12-04T04:19:16;20.60;;;11.10;;
3563;SDS011;1796;52.388;13.096;2023-12-04T04:21:43;24.40;;;10.93;;
3563;SDS011;1796;52.388;13.096;2023-12-04T04:24:11;20.80;;;10.70;;
3563;SDS011;1796;52.388;13.096;2023-12-04T04:26:37;18.47;;;10.30;;
3563;SDS011;1796;52.388;13.096;2023-12-04T04:29:04;25.70;;;13.23;;
3563;SDS011;1796;52.388;13.096;2023-12-04T04:31:30;25.50;;;11.33;;
3563;SDS011;1796;52.388;13.096;2023-12-04T04:33:57;29.53;;;13.60;;
3563;SDS011;1796;52.388;13.096;2023-12-04T04:36:24;27.60;;;11.70;;
3563;SDS011;1796;52.388;13.096;2023-12-04T04:38:51;21.13;;;11.73;;
3563;SDS011;1796;52.388;13.096;2023-12-04T04:41:19;23.47;;;12.00;;
3563;SDS011;1796;52.388;13.096;2023-12-04T04:43:46;25.27;;;11.90;;
3563;SDS011;1796;52.388;13.096;2023-12-04T04:46:12;23.97;;;11.70;;
3563;SDS011;1796;52.388;13.096;2023-12-04T04:48:39;22.93;;;12.17;;
3563;SDS011;1796;52.388;13.096;2023-12-04T04:51:07;21.57;;;12.27;;
3563;SDS011;1796;52.388;13.096;2023-12-04T04:53:34;31.63;;;13.30;;
3563;SDS011;1796;52.388;13.096;2023-12-04T04:56:01;34.83;;;11.60;;
3563;SDS011;1796;52.388;13.096;2023-12-04T04:58:29;22.87;;;12.80;;
3563;SDS011;1796;52.388;13.096;2023-12-04T05:00:56;18.07;;;11.07;;
3563;SDS011;1796;52.388;13.096;2023-12-04T05:03:23;22.17;;;11.57;;
3563;SDS011;1796;52.388;13.096;2023-12-04T05:05:49;24.50;;;11.83;;
3563;SDS011;1796;52.388;13.096;2023-12-04T05:08:17;24.07;;;11.97;;
3563;SDS011;1796;52.388;13.096;2023-12-04T05:10:44;24.73;;;12.93;;
3563;SDS011;1796;52.388;13.096;2023-12-04T05:13:10;21.77;;;11.67;;
3563;SDS011;1796;52.388;13.096;2023-12-04T05:15:38;20.87;;;11.07;;
3563;SDS011;1796;52.388;13.096;2023-12-04T05:18:05;19.30;;;10.53;;
3563;SDS011;1796;52.388;13.096;2023-12-04T05:20:31;19.93;;;11.27;;
3563;SDS011;1796;52.388;13.096;2023-12-04T05:22:58;20.33;;;10.17;;
3563;SDS011;1796;52.388;13.096;2023-12-04T05:25:25;22.93;;;11.40;;
3563;SDS011;1796;52.388;13.096;2023-12-04T05:27:52;22.07;;;11.83;;
3563;SDS011;1796;52.388;13.096;2023-12-04T05:30:19;21.57;;;10.87;;
3563;SDS011;1796;52.388;13.096;2023-12-04T05:32:47;23.70;;;11.50;;
3563;SDS011;1796;52.388;13.096;2023-12-04T05:35:14;20.17;;;9.67;;
3563;SDS011;1796;52.388;13.096;2023-12-04T05:37:42;22.10;;;11.53;;
3563;SDS011;1796;52.388;13.096;2023-12-04T05:40:10;21.60;;;11.03;;
3563;SDS011;1796;52.388;13.096;2023-12-04T05:42:37;23.43;;;11.00;;
3563;SDS011;1796;52.388;13.096;2023-12-04T05:45:04;21.73;;;11.53;;
3563;SDS011;1796;52.388;13.096;2023-12-04T05:47:33;19.30;;;10.70;;
3563;SDS011;1796;52.388;13.096;2023-12-04T05:50:01;23.30;;;11.27;;
3563;SDS011;1796;52.388;13.096;2023-12-04T05:52:28;23.37;;;11.80;;
3563;SDS011;1796;52.388;13.096;2023-12-04T05:54:55;24.97;;;11.50;;
3563;SDS011;1796;52.388;13.096;2023-12-04T05:57:22;18.37;;;9.70;;
3563;SDS011;1796;52.388;13.096;2023-12-04T05:59:48;20.20;;;11.20;;
3563;SDS011;1796;52.388;13.096;2023-12-04T06:02:15;27.00;;;11.33;;
3563;SDS011;1796;52.388;13.096;2023-12-04T06:04:42;21.90;;;11.67;;
3563;SDS011;1796;52.388;13.096;2023-12-04T06:07:10;22.43;;;11.63;;
3563;SDS011;1796;52.388;13.096;2023-12-04T06:09:37;21.90;;;11.57;;
3563;SDS011;1796;52.388;13.096;2023-12-04T06:12:04;23.53;;;11.57;;
3563;SDS011;1796;52.388;13.096;2023-12-04T06:14:33;21.10;;;11.30;;
3563;SDS011;1796;52.388;13.096;2023-12-04T06:17:00;22.57;;;11.77;;
3563;SDS011;1796;52.388;13.096;2023-12-04T06:19:27;23.90;;;12.00;;
3563;SDS011;1796;52.388;13.096;2023-12-04T06:21:54;23.80;;;12.20;;
3563;SDS011;1796;52.388;13.096;2023-12-04T06:24:23;18.60;;;10.83;;
3563;SDS011;1796;52.388;13.096;2023-12-04T06:26:50;22.30;;;11.73;;
3563;SDS011;1796;52.388;13.096;2023-12-04T06:29:18;24.43;;;11.90;;
3563;SDS011;1796;52.388;13.096;2023-12-04T06:31:45;23.60;;;12.43;;
3563;SDS011;1796;52.388;13.096;2023-12-04T06:34:13;25.80;;;12.07;;
3563;SDS011;1796;52.388;13.096;2023-12-04T06:36:40;26.30;;;12.70;;
3563;SDS011;1796;52.388;13.096;2023-12-04T06:39:09;21.47;;;11.47;;
3563;SDS011;1796;52.388;13.096;2023-12-04T06:41:40;22.90;;;10.60;;
3563;SDS011;1796;52.388;13.096;2023-12-04T06:44:08;18.80;;;10.97;;
3563;SDS011;1796;52.388;13.096;2023-12-04T06:46:37;22.17;;;11.20;;
3563;SDS011;1796;52.388;13.096;2023-12-04T06:49:04;25.27;;;12.63;;
3563;SDS011;1796;52.388;13.096;2023-12-04T06:51:32;25.00;;;12.40;;
3563;SDS011;1796;52.388;13.096;2023-12-04T06:53:59;22.03;;;11.67;;
3563;SDS011;1796;52.388;13.096;2023-12-04T06:56:26;23.60;;;13.07;;
3563;SDS011;1796;52.388;13.096;2023-12-04T06:58:54;28.87;;;12.00;;
3563;SDS011;1796;52.388;13.096;2023-12-04T07:01:21;23.70;;;13.00;;
3563;SDS011;1796;52.388;13.096;2023-12-04T07:03:48;23.37;;;11.93;;
3563;SDS011;1796;52.388;13.096;2023-12-04T07:06:15;25.53;;;12.90;;
3563;SDS011;1796;52.388;13.096;2023-12-04T07:08:41;27.33;;;12.53;;
3563;SDS011;1796;52.388;13.096;2023-12-04T07:11:09;24.37;;;12.93;;
3563;SDS011;1796;52.388;13.096;2023-12-04T07:13:40;25.00;;;12.17;;
3563;SDS011;1796;52.388;13.096;2023-12-04T07:16:09;22.87;;;11.83;;
3563;SDS011;1796;52.388;13.096;2023-12-04T07:18:36;32.43;;;14.07;;
3563;SDS011;1796;52.388;13.096;2023-12-04T07:21:03;23.20;;;12.73;;
3563;SDS011;1796;52.388;13.096;2023-12-04T07:23:30;23.90;;;12.80;;
3563;SDS011;1796;52.388;13.096;2023-12-04T07:25:57;27.27;;;13.37;;
3563;SDS011;1796;52.388;13.096;2023-12-04T07:28:24;28.80;;;12.73;;
3563;SDS011;1796;52.388;13.096;2023-12-04T07:30:50;22.97;;;11.97;;
3563;SDS011;1796;52.388;13.096;2023-12-04T07:33:19;26.13;;;11.80;;
3563;SDS011;1796;52.388;13.096;2023-12-04T07:35:46;25.50;;;13.60;;
3563;SDS011;1796;52.388;13.096;2023-12-04T07:38:12;26.40;;;12.57;;
3563;SDS011;1796;52.388;13.096;2023-12-04T07:40:39;23.50;;;12.70;;
3563;SDS011;1796;52.388;13.096;2023-12-04T07:43:06;23.20;;;12.60;;
3563;SDS011;1796;52.388;13.096;2023-12-04T07:45:33;26.00;;;12.60;;
3563;SDS011;1796;52.388;13.096;2023-12-04T07:48:02;24.70;;;12.87;;
3563;SDS011;1796;52.388;13.096;2023-12-04T07:50:30;23.80;;;13.10;;
3563;SDS011;1796;52.388;13.096;2023-12-04T07:52:57;25.80;;;13.53;;
3563;SDS011;1796;52.388;13.096;2023-12-04T07:55:24;26.93;;;13.97;;
3563;SDS011;1796;52.388;13.096;2023-12-04T07:57:51;27.27;;;13.57;;
3563;SDS011;1796;52.388;13.096;2023-12-04T08:00:18;25.60;;;12.47;;
3563;SDS011;1796;52.388;13.096;2023-12-04T08:02:47;27.97;;;12.90;;
3563;SDS011;1796;52.388;13.096;2023-12-04T08:05:14;25.60;;;13.60;;
3563;SDS011;1796;52.388;13.096;2023-12-04T08:07:43;24.73;;;12.70;;
3563;SDS011;1796;52.388;13.096;2023-12-04T08:10:11;22.47;;;11.93;;
3563;SDS011;1796;52.388;13.096;2023-12-04T08:12:38;20.40;;;11.73;;
3563;SDS011;1796;52.388;13.096;2023-12-04T08:15:05;22.13;;;11.63;;
3563;SDS011;1796;52.388;13.096;2023-12-04T08:17:33;25.90;;;12.43;;
3563;SDS011;1796;52.388;13.096;2023-12-04T08:20:00;24.90;;;12.87;;
3563;SDS011;1796;52.388;13.096;2023-12-04T08:22:27;22.87;;;12.97;;
3563;SDS011;1796;52.388;13.096;2023-12-04T08:24:55;20.70;;;12.10;;
3563;SDS011;1796;52.388;13.096;2023-12-04T08:27:23;28.70;;;12.20;;
3563;SDS011;1796;52.388;13.096;2023-12-04T08:29:50;21.37;;;12.30;;
3563;SDS011;1796;52.388;13.096;2023-12-04T08:32:17;23.50;;;12.70;;
3563;SDS011;1796;52.388;13.096;2023-12-04T08:34:44;25.70;;;12.60;;
3563;SDS011;1796;52.388;13.096;2023-12-04T08:37:10;27.73;;;12.60;;
3563;SDS011;1796;52.388;13.096;2023-12-04T08:39:37;22.67;;;12.53;;
3563;SDS011;1796;52.388;13.096;2023-12-04T08:42:05;25.37;;;11.80;;
3563;SDS011;1796;52.388;13.096;2023-12-04T08:44:33;23.80;;;12.83;;
3563;SDS011;1796;52.388;13.096;2023-12-04T08:47:01;21.30;;;12.23;;
3563;SDS011;1796;52.388;13.096;2023-12-04T08:49:28;23.93;;;12.27;;
3563;SDS011;1796;52.388;13.096;2023-12-04T08:51:54;26.57;;;12.87;;
3563;SDS011;1796;52.388;13.096;2023-12-04T08:54:21;19.97;;;10.93;;
3563;SDS011;1796;52.388;13.096;2023-12-04T08:56:49;28.23;;;14.23;;
3563;SDS011;1796;52.388;13.096;2023-12-04T08:59:17;25.20;;;12.53;;
3563;SDS011;1796;52.388;13.096;2023-12-04T09:01:44;20.73;;;11.53;;
3563;SDS011;1796;52.388;13.096;2023-12-04T09:04:11;20.20;;;11.47;;
3563;SDS011;1796;52.388;13.096;2023-12-04T09:06:38;23.23;;;12.97;;
3563;SDS011;1796;52.388;13.096;2023-12-04T09:09:05;19.50;;;10.30;;
3563;SDS011;1796;52.388;13.096;2023-12-04T09:11:32;21.20;;;11.57;;
3563;SDS011;1796;52.388;13.096;2023-12-04T09:13:59;20.93;;;12.20;;
3563;SDS011;1796;52.388;13.096;2023-12-04T09:16:27;27.50;;;12.97;;
3563;SDS011;1796;52.388;13.096;2023-12-04T09:18:54;21.70;;;11.90;;
3563;SDS011;1796;52.388;13.096;2023-12-04T09:21:21;30.13;;;12.17;;
3563;SDS011;1796;52.388;13.096;2023-12-04T09:23:48;20.80;;;11.67;;
3563;SDS011;1796;52.388;13.096;2023-12-04T09:26:15;22.30;;;10.60;;
3563;SDS011;1796;52.388;13.096;2023-12-04T09:28:42;20.13;;;11.07;;
3563;SDS011;1796;52.388;13.096;2023-12-04T09:31:09;22.47;;;12.23;;
3563;SDS011;1796;52.388;13.096;2023-12-04T09:33:37;21.07;;;11.33;;
3563;SDS011;1796;52.388;13.096;2023-12-04T09:36:04;19.77;;;11.33;;
3563;SDS011;1796;52.388;13.096;2023-12-04T09:38:31;18.10;;;11.40;;
3563;SDS011;1796;52.388;13.096;2023-12-04T09:40:59;22.33;;;12.20;;
3563;SDS011;1796;52.388;13.096;2023-12-04T09:43:28;17.10;;;10.43;;
3563;SDS011;1796;52.388;13.096;2023-12-04T09:45:57;18.90;;;12.40;;
3563;SDS011;1796;52.388;13.096;2023-12-04T09:48:26;17.00;;;10.87;;
3563;SDS011;1796;52.388;13.096;2023-12-04T09:50:55;20.33;;;11.07;;
3563;SDS011;1796;52.388;13.096;2023-12-04T09:53:23;19.23;;;10.57;;
3563;SDS011;1796;52.388;13.096;2023-12-04T09:55:52;15.50;;;10.70;;
3563;SDS011;1796;52.388;13.096;2023-12-04T09:58:21;19.10;;;11.87;;
3563;SDS011;1796;52.388;13.096;2023-12-04T10:00:53;21.90;;;11.37;;
3563;SDS011;1796;52.388;13.096;2023-12-04T10:03:20;19.47;;;12.00;;
3563;SDS011;1796;52.388;13.096;2023-12-04T10:05:47;16.27;;;10.00;;
3563;SDS011;1796;52.388;13.096;2023-12-04T10:08:16;21.23;;;11.90;;
3563;SDS011;1796;52.388;13.096;2023-12-04T10:10:43;19.97;;;11.33;;
3563;SDS011;1796;52.388;13.096;2023-12-04T10:13:10;19.50;;;10.90;;
3563;SDS011;1796;52.388;13.096;2023-12-04T10:15:45;16.17;;;10.47;;
3563;SDS011;1796;52.388;13.096;2023-12-04T10:18:23;18.13;;;11.90;;
3563;SDS011;1796;52.388;13.096;2023-12-04T10:20:51;19.33;;;11.07;;
3563;SDS011;1796;52.388;13.096;2023-12-04T10:23:21;16.80;;;10.83;;
3563;SDS011;1796;52.388;13.096;2023-12-04T10:25:48;13.77;;;9.50;;
3563;SDS011;1796;52.388;13.096;2023-12-04T10:28:16;18.10;;;10.50;;
3563;SDS011;1796;52.388;13.096;2023-12-04T10:30:43;17.70;;;10.77;;
3563;SDS011;1796;52.388;13.096;2023-12-04T10:33:11;16.63;;;9.30;;
3563;SDS011;1796;52.388;13.096;2023-12-04T10:35:39;14.30;;;9.13;;
3563;SDS011;1796;52.388;13.096;2023-12-04T10:38:07;15.83;;;10.20;;
3563;SDS011;1796;52.388;13.096;2023-12-04T10:40:36;22.63;;;10.27;;
3563;SDS011;1796;52.388;13.096;2023-12-04T10:43:14;15.47;;;9.67;;
3563;SDS011;1796;52.388;13.096;2023-12-04T10:45:42;22.00;;;10.47;;
3563;SDS011;1796;52.388;13.096;2023-12-04T10:48:10;19.90;;;10.30;;
3563;SDS011;1796;52.388;13.096;2023-12-04T10:50:38;22.43;;;10.90;;
3563;SDS011;1796;52.388;13.096;2023-12-04T10:53:05;16.63;;;10.30;;
3563;SDS011;1796;52.388;13.096;2023-12-04T10:55:35;14.83;;;9.03;;
3563;SDS011;1796;52.388;13.096;2023-12-04T10:58:05;17.83;;;10.37;;
3563;SDS011;1796;52.388;13.096;2023-12-04T11:00:35;15.10;;;9.93;;
3563;SDS011;1796;52.388;13.096;2023-12-04T11:03:04;13.67;;;9.70;;
3563;SDS011;1796;52.388;13.096;2023-12-04T11:05:35;14.10;;;9.10;;
3563;SDS011;1796;52.388;13.096;2023-12-04T11:08:05;14.13;;;9.27;;
3563;SDS011;1796;52.388;13.096;2023-12-04T11:10:33;16.07;;;9.80;;
3563;SDS011;1796;52.388;13.096;2023-12-04T11:13:15;12.47;;;8.60;;
3563;SDS011;1796;52.388;13.096;2023-12-04T11:15:48;16.47;;;9.73;;
3563;SDS011;1796;52.388;13.096;2023-12-04T11:18:16;14.10;;;9.07;;
3563;SDS011;1796;52.388;13.096;2023-12-04T11:20:51;20.23;;;9.77;;
3563;SDS011;1796;52.388;13.096;2023-12-04T11:23:22;12.53;;;8.70;;
3563;SDS011;1796;52.388;13.096;2023-12-04T11:25:52;16.87;;;10.37;;
3563;SDS011;1796;52.388;13.096;2023-12-04T11:28:20;15.30;;;9.50;;
3563;SDS011;1796;52.388;13.096;2023-12-04T11:30:47;13.30;;;9.10;;
3563;SDS011;1796;52.388;13.096;2023-12-04T11:33:15;13.20;;;9.13;;
3563;SDS011;1796;52.388;13.096;2023-12-04T11:35:42;15.13;;;8.70;;
3563;SDS011;1796;52.388;13.096;2023-12-04T11:38:12;12.97;;;8.50;;
3563;SDS011;1796;52.388;13.096;2023-12-04T11:40:41;12.67;;;7.90;;
3563;SDS011;1796;52.388;13.096;2023-12-04T11:43:23;15.83;;;8.60;;
3563;SDS011;1796;52.388;13.096;2023-12-04T11:45:51;15.03;;;8.50;;
3563;SDS011;1796;52.388;13.096;2023-12-04T11:48:22;16.83;;;9.80;;
3563;SDS011;1796;52.388;13.096;2023-12-04T11:50:49;15.77;;;8.53;;
3563;SDS011;1796;52.388;13.096;2023-12-04T11:53:16;17.70;;;9.60;;
3563;SDS011;1796;52.388;13.096;2023-12-04T11:55:43;12.83;;;7.77;;
3563;SDS011;1796;52.388;13.096;2023-12-04T11:58:12;14.57;;;9.13;;
3563;SDS011;1796;52.388;13.096;2023-12-04T12:00:40;13.37;;;8.40;;
3563;SDS011;1796;52.388;13.096;2023-12-04T12:03:08;12.70;;;8.30;;
3563;SDS011;1796;52.388;13.096;2023-12-04T12:05:36;12.23;;;7.87;;
3563;SDS011;1796;52.388;13.096;2023-12-04T12:08:04;10.90;;;7.93;;
3563;SDS011;1796;52.388;13.096;2023-12-04T12:10:32;14.40;;;9.27;;
3563;SDS011;1796;52.388;13.096;2023-12-04T12:13:00;11.77;;;8.33;;
3563;SDS011;1796;52.388;13.096;2023-12-04T12:15:27;12.50;;;8.87;;
3563;SDS011;1796;52.388;13.096;2023-12-04T12:17:56;15.80;;;8.03;;
3563;SDS011;1796;52.388;13.096;2023-12-04T12:20:23;11.27;;;8.27;;
3563;SDS011;1796;52.388;13.096;2023-12-04T12:22:50;14.60;;;8.37;;
3563;SDS011;1796;52.388;13.096;2023-12-04T12:25:18;16.03;;;8.57;;
3563;SDS011;1796;52.388;13.096;2023-12-04T12:27:45;12.40;;;8.43;;
3563;SDS011;1796;52.388;13.096;2023-12-04T12:30:12;12.30;;;8.50;;
3563;SDS011;1796;52.388;13.096;2023-12-04T12:32:39;10.50;;;7.40;;
3563;SDS011;1796;52.388;13.096;2023-12-04T12:35:08;11.70;;;7.63;;
3563;SDS011;1796;52.388;13.096;2023-12-04T12:37:35;14.43;;;8.37;;
3563;SDS011;1796;52.388;13.096;2023-12-04T12:40:03;12.97;;;7.80;;
3563;SDS011;1796;52.388;13.096;2023-12-04T12:42:34;13.50;;;7.67;;
3563;SDS011;1796;52.388;13.096;2023-12-04T12:45:01;10.73;;;7.00;;
3563;SDS011;1796;52.388;13.096;2023-12-04T12:47:29;13.60;;;7.97;;
3563;SDS011;1796;52.388;13.096;2023-12-04T12:49:57;11.90;;;8.30;;
3563;SDS011;1796;52.388;13.096;2023-12-04T12:52:25;13.37;;;8.93;;
3563;SDS011;1796;52.388;13.096;2023-12-04T12:54:53;11.87;;;8.07;;
3563;SDS011;1796;52.388;13.096;2023-12-04T12:57:19;11.13;;;7.70;;
3563;SDS011;1796;52.388;13.096;2023-12-04T12:59:46;11.27;;;7.20;;
3563;SDS011;1796;52.388;13.096;2023-12-04T13:02:13;11.40;;;7.00;;
3563;SDS011;1796;52.388;13.096;2023-12-04T13:04:41;12.70;;;7.10;;
3563;SDS011;1796;52.388;13.096;2023-12-04T13:07:09;10.13;;;7.57;;
3563;SDS011;1796;52.388;13.096;2023-12-04T13:09:38;9.70;;;6.63;;
3563;SDS011;1796;52.388;13.096;2023-12-04T13:12:05;12.10;;;7.70;;
3563;SDS011;1796;52.388;13.096;2023-12-04T13:14:34;15.57;;;7.20;;
3563;SDS011;1796;52.388;13.096;2023-12-04T13:17:01;12.83;;;7.73;;
3563;SDS011;1796;52.388;13.096;2023-12-04T13:19:28;10.30;;;6.30;;
3563;SDS011;1796;52.388;13.096;2023-12-04T13:21:56;10.73;;;7.77;;
3563;SDS011;1796;52.388;13.096;2023-12-04T13:24:22;10.70;;;7.53;;
3563;SDS011;1796;52.388;13.096;2023-12-04T13:26:50;11.73;;;7.53;;
3563;SDS011;1796;52.388;13.096;2023-12-04T13:29:18;10.23;;;7.33;;
3563;SDS011;1796;52.388;13.096;2023-12-04T13:31:45;10.13;;;7.30;;
3563;SDS011;1796;52.388;13.096;2023-12-04T13:34:14;9.47;;;7.67;;
3563;SDS011;1796;52.388;13.096;2023-12-04T13:36:41;11.73;;;7.30;;
3563;SDS011;1796;52.388;13.096;2023-12-04T13:39:09;14.10;;;7.33;;
3563;SDS011;1796;52.388;13.096;2023-12-04T13:41:42;11.33;;;6.60;;
3563;SDS011;1796;52.388;13.096;2023-12-04T13:44:29;11.70;;;7.70;;
3563;SDS011;1796;52.388;13.096;2023-12-04T13:46:56;9.80;;;6.87;;
3563;SDS011;1796;52.388;13.096;2023-12-04T13:49:23;14.50;;;8.10;;
3563;SDS011;1796;52.388;13.096;2023-12-04T13:51:49;13.37;;;8.73;;
3563;SDS011;1796;52.388;13.096;2023-12-04T13:54:18;12.13;;;7.57;;
3563;SDS011;1796;52.388;13.096;2023-12-04T13:56:52;13.63;;;7.57;;
3563;SDS011;1796;52.388;13.096;2023-12-04T13:59:19;19.83;;;9.07;;
3563;SDS011;1796;52.388;13.096;2023-12-04T14:01:48;11.07;;;7.67;;
3563;SDS011;1796;52.388;13.096;2023-12-04T14:04:16;13.07;;;8.70;;
3563;SDS011;1796;52.388;13.096;2023-12-04T14:06:43;10.73;;;7.50;;
3563;SDS011;1796;52.388;13.096;2023-12-04T14:09:11;15.40;;;7.50;;
3563;SDS011;1796;52.388;13.096;2023-12-04T14:11:40;12.57;;;7.73;;
3563;SDS011;1796;52.388;13.096;2023-12-04T14:14:10;12.27;;;8.03;;
3563;SDS011;1796;52.388;13.096;2023-12-04T14:16:39;14.50;;;8.33;;
3563;SDS011;1796;52.388;13.096;2023-12-04T14:19:08;10.83;;;7.53;;
3563;SDS011;1796;52.388;13.096;2023-12-04T14:21:35;10.70;;;8.00;;
3563;SDS011;1796;52.388;13.096;2023-12-04T14:24:02;15.60;;;7.87;;
3563;SDS011;1796;52.388;13.096;2023-12-04T14:26:28;10.90;;;7.50;;
3563;SDS011;1796;52.388;13.096;2023-12-04T14:28:55;11.13;;;7.27;;
3563;SDS011;1796;52.388;13.096;2023-12-04T14:31:26;15.60;;;6.60;;
3563;SDS011;1796;52.388;13.096;2023-12-04T14:33:52;16.20;;;8.33;;
3563;SDS011;1796;52.388;13.096;2023-12-04T14:36:21;10.00;;;7.20;;
3563;SDS011;1796;52.388;13.096;2023-12-04T14:38:47;13.03;;;7.90;;
3563;SDS011;1796;52.388;13.096;2023-12-04T14:41:14;12.63;;;8.17;;
3563;SDS011;1796;52.388;13.096;2023-12-04T14:43:41;12.17;;;8.20;;